Time,TemperatureF,DewpointF,PressureIn,WindDirection,WindDirectionDegrees,WindSpeedMPH,WindSpeedGustMPH,Humidity,HourlyPrecipIn,Conditions,Clouds,dailyrainin,SoftwareType,DateUTC
2013-09-02 00:01:00,79.3,77.0,30.00,SSE,158,0.0,0.0,92,0.00,,,0.02,weatherlink.com 1.10,2013-09-02 04:01:00,
2013-09-02 00:16:00,79.3,77.0,30.00,SSE,158,0.0,0.0,92,0.00,,,0.00,weatherlink.com 1.10,2013-09-02 04:16:00,
2013-09-02 00:31:00,79.3,77.0,29.99,SSE,158,0.0,0.0,93,0.00,,,0.00,weatherlink.com 1.10,2013-09-02 04:31:00,
2013-09-02 00:46:00,79.1,77.0,29.99,SSE,158,0.0,0.0,93,0.00,,,0.00,weatherlink.com 1.10,2013-09-02 04:46:00,
2013-09-02 01:01:00,78.9,77.0,29.99,SSE,158,0.0,0.0,93,0.00,,,0.00,weatherlink.com 1.10,2013-09-02 05:01:00,
2013-09-02 01:16:00,78.9,77.0,29.99,SSE,158,0.0,0.0,93,0.00,,,0.00,weatherlink.com 1.10,2013-09-02 05:16:00,
2013-09-02 01:31:00,78.9,77.0,29.98,SSE,158,0.0,0.0,93,0.00,,,0.00,weatherlink.com 1.10,2013-09-02 05:31:00,
2013-09-02 01:46:00,78.5,76.0,29.98,SSE,158,0.0,0.0,93,0.00,,,0.00,weatherlink.com 1.10,2013-09-02 05:46:00,
2013-09-02 02:01:00,78.4,77.0,29.98,SSE,158,0.0,0.0,94,0.00,,,0.00,weatherlink.com 1.10,2013-09-02 06:01:00,
2013-09-02 02:16:00,78.2,76.0,29.97,SSE,158,0.0,0.0,94,0.00,,,0.00,weatherlink.com 1.10,2013-09-02 06:16:00,
2013-09-02 02:31:00,78.4,77.0,29.97,SSE,158,0.0,0.0,94,0.00,,,0.00,weatherlink.com 1.10,2013-09-02 06:31:00,
2013-09-02 02:46:00,78.2,76.0,29.96,SSE,158,0.0,0.0,94,0.00,,,0.00,weatherlink.com 1.10,2013-09-02 06:46:00,
2013-09-02 03:01:00,78.2,76.0,29.96,SSE,158,0.0,0.0,94,0.00,,,0.00,weatherlink.com 1.10,2013-09-02 07:01:00,
2013-09-02 03:16:00,78.2,76.0,29.95,SSE,158,0.0,0.0,94,0.00,,,0.00,weatherlink.com 1.10,2013-09-02 07:16:00,
2013-09-02 03:31:00,78.0,76.0,29.96,SSE,158,0.0,0.0,94,0.00,,,0.00,weatherlink.com 1.10,2013-09-02 07:31:00,
2013-09-02 03:46:00,77.8,76.0,29.95,SSE,158,0.0,0.0,95,0.00,,,0.00,weatherlink.com 1.10,2013-09-02 07:46:00,
2013-09-02 04:01:00,77.8,76.0,29.95,SSE,158,0.0,1.0,95,0.00,,,0.00,weatherlink.com 1.10,2013-09-02 08:01:00,
2013-09-02 04:16:00,77.6,76.0,29.95,SSE,158,2.0,5.0,95,0.00,,,0.00,weatherlink.com 1.10,2013-09-02 08:16:00,
2013-09-02 04:31:00,77.5,76.0,29.95,SSE,158,1.0,4.0,95,0.00,,,0.00,weatherlink.com 1.10,2013-09-02 08:31:00,
2013-09-02 04:46:00,77.5,76.0,29.95,SSE,158,0.0,2.0,95,0.00,,,0.00,weatherlink.com 1.10,2013-09-02 08:46:00,
2013-09-02 05:01:00,77.5,76.0,29.95,SSE,158,0.0,0.0,95,0.00,,,0.00,weatherlink.com 1.10,2013-09-02 09:01:00,
2013-09-02 05:16:00,77.5,76.0,29.95,SSE,158,0.0,0.0,95,0.00,,,0.00,weatherlink.com 1.10,2013-09-02 09:16:00,
2013-09-02 05:31:00,77.5,76.0,29.95,SSE,158,0.0,0.0,95,0.00,,,0.00,weatherlink.com 1.10,2013-09-02 09:31:00,
2013-09-02 05:46:00,77.5,76.0,29.95,SSE,158,0.0,0.0,95,0.00,,,0.00,weatherlink.com 1.10,2013-09-02 09:46:00,
2013-09-02 06:01:00,77.6,76.0,29.96,SSE,158,0.0,0.0,95,0.00,,,0.00,weatherlink.com 1.10,2013-09-02 10:01:00,
2013-09-02 06:16:00,77.5,76.0,29.96,SSE,158,0.0,0.0,95,0.00,,,0.00,weatherlink.com 1.10,2013-09-02 10:16:00,
2013-09-02 06:31:00,77.3,76.0,29.97,SSE,158,0.0,0.0,95,0.00,,,0.00,weatherlink.com 1.10,2013-09-02 10:31:00,
2013-09-02 06:46:00,77.5,76.0,29.98,SSE,158,0.0,0.0,95,0.00,,,0.00,weatherlink.com 1.10,2013-09-02 10:46:00,
2013-09-02 07:01:00,77.3,76.0,29.98,SSE,158,0.0,0.0,95,0.00,,,0.00,weatherlink.com 1.10,2013-09-02 11:01:00,
2013-09-02 07:16:00,77.5,76.0,29.98,SSE,158,0.0,0.0,95,0.00,,,0.00,weatherlink.com 1.10,2013-09-02 11:16:00,
2013-09-02 07:31:00,77.8,76.0,29.99,SSE,158,0.0,0.0,95,0.00,,,0.00,weatherlink.com 1.10,2013-09-02 11:31:00,
2013-09-02 07:46:00,77.8,76.0,29.99,SSE,158,0.0,0.0,95,0.00,,,0.00,weatherlink.com 1.10,2013-09-02 11:46:00,
2013-09-02 08:01:00,78.0,77.0,30.00,SSE,158,0.0,0.0,95,0.00,,,0.00,weatherlink.com 1.10,2013-09-02 12:01:00,
2013-09-02 08:16:00,78.7,77.0,30.00,SSE,158,0.0,0.0,95,0.00,,,0.00,weatherlink.com 1.10,2013-09-02 12:16:00,
2013-09-02 08:31:00,79.5,78.0,30.00,SSE,158,0.0,0.0,95,0.00,,,0.00,weatherlink.com 1.10,2013-09-02 12:31:00,
2013-09-02 08:46:00,80.2,78.0,30.01,SSE,158,0.0,0.0,94,0.00,,,0.00,weatherlink.com 1.10,2013-09-02 12:46:00,
2013-09-02 09:01:00,81.9,79.0,30.01,SSE,158,0.0,0.0,90,0.00,,,0.00,weatherlink.com 1.10,2013-09-02 13:01:00,
2013-09-02 09:16:00,83.9,77.0,30.01,SSE,158,0.0,0.0,79,0.00,,,0.00,weatherlink.com 1.10,2013-09-02 13:16:00,
2013-09-02 09:31:00,85.8,77.0,30.01,SSE,158,0.0,0.0,75,0.00,,,0.00,weatherlink.com 1.10,2013-09-02 13:31:00,
2013-09-02 09:46:00,85.8,77.0,30.02,SSE,158,0.0,0.0,74,0.00,,,0.00,weatherlink.com 1.10,2013-09-02 13:46:00,
2013-09-02 10:01:00,85.2,76.0,30.02,SSE,158,0.0,1.0,74,0.00,,,0.00,weatherlink.com 1.10,2013-09-02 14:01:00,
2013-09-02 10:16:00,86.0,76.0,30.02,SSE,158,0.0,1.0,73,0.00,,,0.00,weatherlink.com 1.10,2013-09-02 14:16:00,
2013-09-02 10:31:00,87.7,76.0,30.03,SSE,160,0.0,1.0,69,0.00,,,0.00,weatherlink.com 1.10,2013-09-02 14:31:00,
2013-09-02 10:46:00,88.3,76.0,30.03,SSE,161,0.0,3.0,66,0.00,,,0.00,weatherlink.com 1.10,2013-09-02 14:46:00,
2013-09-02 11:01:00,87.7,74.0,30.03,SSE,161,0.0,1.0,64,0.00,,,0.00,weatherlink.com 1.10,2013-09-02 15:01:00,
2013-09-02 11:18:00,88.5,75.0,30.03,SSE,162,0.0,4.0,64,0.00,,,0.00,weatherlink.com 1.10,2013-09-02 15:18:00,
2013-09-02 11:31:00,88.1,75.0,30.03,SE,137,0.0,7.0,66,0.00,,,0.00,weatherlink.com 1.10,2013-09-02 15:31:00,
2013-09-02 11:47:00,87.1,76.0,30.03,SE,129,0.0,6.0,70,0.00,,,0.00,weatherlink.com 1.10,2013-09-02 15:47:00,
2013-09-02 12:02:00,86.4,76.0,30.03,SE,135,3.0,7.0,70,0.00,,,0.00,weatherlink.com 1.10,2013-09-02 16:02:00,
2013-09-02 12:17:00,86.4,76.0,30.02,SE,145,0.0,6.0,70,0.00,,,0.00,weatherlink.com 1.10,2013-09-02 16:17:00,
2013-09-02 12:32:00,87.1,77.0,30.01,ESE,114,0.0,10.0,71,0.00,,,0.00,weatherlink.com 1.10,2013-09-02 16:32:00,
2013-09-02 12:47:00,88.1,76.0,30.01,East,95,9.0,12.0,67,0.00,,,0.00,weatherlink.com 1.10,2013-09-02 16:47:00,
2013-09-02 13:02:00,87.3,76.0,30.02,ESE,116,4.0,11.0,68,0.00,,,0.00,weatherlink.com 1.10,2013-09-02 17:02:00,
2013-09-02 13:17:00,87.9,76.0,30.01,ESE,117,6.0,11.0,68,0.00,,,0.00,weatherlink.com 1.10,2013-09-02 17:17:00,
2013-09-02 13:32:00,88.7,76.0,30.01,SE,133,0.0,12.0,66,0.00,,,0.00,weatherlink.com 1.10,2013-09-02 17:32:00,
2013-09-02 13:47:00,87.9,76.0,30.00,ESE,118,4.0,12.0,67,0.00,,,0.00,weatherlink.com 1.10,2013-09-02 17:47:00,
2013-09-02 14:02:00,87.3,76.0,30.01,SE,136,5.0,15.0,68,0.00,,,0.00,weatherlink.com 1.10,2013-09-02 18:02:00,
2013-09-02 14:17:00,86.2,75.0,30.01,SE,146,0.0,13.0,69,0.00,,,0.00,weatherlink.com 1.10,2013-09-02 18:17:00,
2013-09-02 14:32:00,85.0,74.0,30.04,SSW,201,7.0,23.0,69,0.00,,,0.00,weatherlink.com 1.10,2013-09-02 18:32:00,
2013-09-02 14:47:00,81.0,73.0,30.04,SW,235,3.0,11.0,77,0.00,,,0.00,weatherlink.com 1.10,2013-09-02 18:47:00,
2013-09-02 15:02:00,77.5,73.0,30.04,North,354,3.0,13.0,86,0.12,,,0.12,weatherlink.com 1.10,2013-09-02 19:02:00,
2013-09-02 15:17:00,76.4,73.0,30.01,NNW,329,0.0,5.0,90,0.14,,,0.14,weatherlink.com 1.10,2013-09-02 19:17:00,
2013-09-02 15:32:00,75.5,73.0,30.00,North,354,6.0,6.0,91,0.14,,,0.14,weatherlink.com 1.10,2013-09-02 19:32:00,
2013-09-02 15:47:00,75.2,73.0,30.01,NW,322,3.0,11.0,92,0.14,,,0.14,weatherlink.com 1.10,2013-09-02 19:47:00,
2013-09-02 16:02:00,75.5,73.0,29.99,NW,306,0.0,8.0,92,0.02,,,0.14,weatherlink.com 1.10,2013-09-02 20:02:00,
2013-09-02 16:17:00,76.6,75.0,29.99,West,267,4.0,5.0,93,0.01,,,0.15,weatherlink.com 1.10,2013-09-02 20:17:00,
2013-09-02 16:32:00,76.4,74.0,29.99,WNW,285,0.0,5.0,93,0.01,,,0.15,weatherlink.com 1.10,2013-09-02 20:32:00,
2013-09-02 16:47:00,76.6,74.0,29.99,WNW,293,0.0,3.0,92,0.01,,,0.15,weatherlink.com 1.10,2013-09-02 20:47:00,
2013-09-02 17:02:00,77.1,75.0,29.99,WNW,302,0.0,7.0,92,0.01,,,0.15,weatherlink.com 1.10,2013-09-02 21:02:00,
2013-09-02 17:17:00,77.3,75.0,29.98,NNW,335,3.0,9.0,91,0.00,,,0.15,weatherlink.com 1.10,2013-09-02 21:17:00,
2013-09-02 17:32:00,77.5,75.0,29.98,NW,318,3.0,6.0,91,0.00,,,0.15,weatherlink.com 1.10,2013-09-02 21:32:00,
2013-09-02 17:47:00,77.8,74.0,29.98,WNW,298,0.0,4.0,89,0.00,,,0.15,weatherlink.com 1.10,2013-09-02 21:47:00,
2013-09-02 18:02:00,78.2,75.0,29.97,NW,305,0.0,4.0,89,0.00,,,0.15,weatherlink.com 1.10,2013-09-02 22:02:00,
2013-09-02 18:17:00,78.2,74.0,29.96,NNW,331,3.0,7.0,88,0.00,,,0.15,weatherlink.com 1.10,2013-09-02 22:17:00,
2013-09-02 18:32:00,78.0,74.0,29.96,NNW,331,1.0,7.0,88,0.01,,,0.16,weatherlink.com 1.10,2013-09-02 22:32:00,
2013-09-02 18:47:00,78.2,74.0,29.96,NW,314,0.0,6.0,88,0.01,,,0.16,weatherlink.com 1.10,2013-09-02 22:47:00,
2013-09-02 19:02:00,78.2,74.0,29.97,NW,322,0.0,6.0,88,0.01,,,0.16,weatherlink.com 1.10,2013-09-02 23:02:00,
2013-09-02 19:17:00,78.2,74.0,29.96,NW,325,0.0,3.0,88,0.01,,,0.16,weatherlink.com 1.10,2013-09-02 23:17:00,
2013-09-02 19:32:00,78.2,74.0,29.95,NW,325,0.0,0.0,86,0.00,,,0.16,weatherlink.com 1.10,2013-09-02 23:32:00,
2013-09-02 19:47:00,78.4,74.0,29.96,NW,325,0.0,0.0,86,0.00,,,0.16,weatherlink.com 1.10,2013-09-02 23:47:00,
2013-09-02 20:02:00,78.4,74.0,29.96,NW,325,0.0,0.0,87,0.00,,,0.16,weatherlink.com 1.10,2013-09-03 00:02:00,
2013-09-02 20:17:00,78.4,75.0,29.96,NW,325,0.0,0.0,88,0.00,,,0.16,weatherlink.com 1.10,2013-09-03 00:17:00,
2013-09-02 20:32:00,78.0,74.0,29.96,NW,325,0.0,0.0,88,0.00,,,0.16,weatherlink.com 1.10,2013-09-03 00:32:00,
2013-09-02 20:47:00,77.8,74.0,29.98,NW,325,0.0,0.0,88,0.00,,,0.16,weatherlink.com 1.10,2013-09-03 00:47:00,
2013-09-02 21:02:00,77.8,74.0,29.98,NW,325,0.0,0.0,88,0.00,,,0.16,weatherlink.com 1.10,2013-09-03 01:02:00,
2013-09-02 21:17:00,77.6,74.0,29.99,NW,325,0.0,0.0,89,0.00,,,0.16,weatherlink.com 1.10,2013-09-03 01:17:00,
2013-09-02 21:32:00,77.6,74.0,29.99,NW,325,0.0,0.0,88,0.00,,,0.16,weatherlink.com 1.10,2013-09-03 01:32:00,
2013-09-02 21:48:00,77.8,74.0,30.00,NW,325,0.0,0.0,88,0.00,,,0.16,weatherlink.com 1.10,2013-09-03 01:48:00,
2013-09-02 22:02:00,77.6,74.0,29.99,NW,325,0.0,0.0,88,0.00,,,0.16,weatherlink.com 1.10,2013-09-03 02:02:00,
2013-09-02 22:17:00,77.5,74.0,29.99,NW,325,0.0,0.0,89,0.00,,,0.16,weatherlink.com 1.10,2013-09-03 02:17:00,
2013-09-02 22:32:00,77.6,75.0,29.99,NW,325,0.0,0.0,90,0.00,,,0.16,weatherlink.com 1.10,2013-09-03 02:32:00,
2013-09-02 22:47:00,77.3,75.0,29.99,NW,325,0.0,0.0,91,0.00,,,0.16,weatherlink.com 1.10,2013-09-03 02:47:00,
2013-09-02 23:02:00,76.9,74.0,29.99,NW,325,0.0,0.0,91,0.00,,,0.16,weatherlink.com 1.10,2013-09-03 03:02:00,
2013-09-02 23:17:00,77.1,74.0,29.99,NW,325,0.0,0.0,91,0.00,,,0.16,weatherlink.com 1.10,2013-09-03 03:17:00,
2013-09-02 23:32:00,77.1,74.0,29.99,NW,325,0.0,0.0,91,0.00,,,0.16,weatherlink.com 1.10,2013-09-03 03:32:00,
2013-09-02 23:47:00,76.9,74.0,29.99,NW,325,0.0,0.0,91,0.00,,,0.16,weatherlink.com 1.10,2013-09-03 03:47:00,